»·PEaware :: N218LL 49X-L52

N218LL :: 49X-L52

FLIGHT INFORMATION

Flight Status: Arrived
Operator: Privately registered:
United States
More flights under this callsign
Pilot: Larry S. (744)
Aircraft: PIPER PA-31/31P NAVAJO CHIEFTAIN
(PA31)
More flights by this aircraft type
Origin: 49X Chemehuevi Valley
United States
Destination: L52 Oceano Co
United States
More flights between these airports :: More routes between these airports
Route: ZELMA ETHER
File this flight plan on PilotEdge
Remarks:
Altitude:
(Current/Filed)
12,500ft
Speed:
(Current/Filed)
180kts
Departed: 21-May-21 01:41 PM
Arrived: 21-May-21 03:53 PM
Distance/Time
Traveled:
307nm/2:12
Distance/Time
To Go:
Arrived

Flight Plot

Page will automatically refresh every two minutes.

Flight plan parsing failed; only flown route is shown


Map Options




Map Legend


Flown Route
Filed Route
Departure Airport
Arrival Airport
Navaid (VOR, NDB)
Fix

Horizontal Profiles

Position Reports

Time Latitude Longitude Heading Altitude Ground
Speed
21-May-21 13:23 34.529430 -114.430281 180 624ft 0kts
21-May-21 13:24 34.529430 -114.430281 180 624ft 0kts
21-May-21 13:25 34.529430 -114.430281 180 624ft 0kts
21-May-21 13:26 34.529430 -114.430281 180 624ft 0kts
21-May-21 13:27 34.529430 -114.430281 180 624ft 0kts
21-May-21 13:28 34.529430 -114.430281 180 624ft 0kts
21-May-21 13:29 34.529430 -114.430281 180 624ft 0kts
21-May-21 13:30 34.529430 -114.430281 179 624ft 0kts
21-May-21 13:31 34.529430 -114.430281 180 624ft 0kts
21-May-21 13:32 34.529430 -114.430281 180 624ft 0kts
21-May-21 13:33 34.529430 -114.430281 180 624ft 0kts
21-May-21 13:34 34.529425 -114.430281 180 624ft 0kts
21-May-21 13:35 34.530592 -114.430964 359 624ft 17kts
21-May-21 13:36 34.535643 -114.430983 285 624ft 4kts
21-May-21 13:37 34.535642 -114.431001 259 624ft 0kts
21-May-21 13:38 34.535642 -114.431000 260 624ft 0kts
21-May-21 13:39 34.535687 -114.431473 277 625ft 6kts
21-May-21 13:40 34.530719 -114.431965 181 625ft 101kts
21-May-21 13:41 34.501049 -114.444433 253 2136ft 142kts
21-May-21 13:42 34.528028 -114.479020 326 3480ft 161kts
21-May-21 13:43 34.562072 -114.509057 292 4880ft 145kts
21-May-21 13:44 34.569582 -114.554879 275 6170ft 137kts
21-May-21 13:45 34.578517 -114.598338 280 7715ft 128kts
21-May-21 13:46 34.589020 -114.639871 280 9142ft 133kts
21-May-21 13:47 34.600785 -114.682686 283 10448ft 143kts
21-May-21 13:48 34.613916 -114.728168 283 11677ft 143kts
21-May-21 13:49 34.627279 -114.775246 283 12520ft 165kts
21-May-21 13:50 34.640950 -114.831435 283 12511ft 170kts
21-May-21 13:51 34.656052 -114.885198 286 12511ft 166kts
21-May-21 13:52 34.671763 -114.937904 286 12511ft 166kts
21-May-21 13:53 34.687494 -114.990386 286 12511ft 165kts
21-May-21 13:54 34.702784 -115.042706 284 12511ft 163kts
21-May-21 13:55 34.717416 -115.094409 284 12510ft 161kts
21-May-21 13:56 34.731779 -115.145479 283 12510ft 158kts
21-May-21 13:57 34.745928 -115.195915 283 12510ft 156kts
21-May-21 13:58 34.759872 -115.245834 282 12519ft 155kts
21-May-21 13:59 34.773756 -115.295572 283 12529ft 155kts
21-May-21 14:00 34.781754 -115.345800 267 12538ft 151kts
21-May-21 14:01 34.780511 -115.396767 265 12548ft 151kts
21-May-21 14:02 34.778634 -115.447738 265 12559ft 150kts
21-May-21 14:03 34.776617 -115.498687 265 12566ft 150kts
21-May-21 14:04 34.774563 -115.549464 265 12572ft 150kts
21-May-21 14:05 34.772476 -115.600393 265 12578ft 150kts
21-May-21 14:06 34.770369 -115.651304 265 12584ft 150kts
21-May-21 14:07 34.768229 -115.702431 265 12595ft 152kts
21-May-21 14:08 34.766059 -115.753872 265 12594ft 152kts
21-May-21 14:09 34.763868 -115.805229 265 12594ft 152kts
21-May-21 14:10 34.761651 -115.856684 265 12594ft 152kts
21-May-21 14:11 34.759402 -115.908400 265 12566ft 152kts
21-May-21 14:12 34.757144 -115.959771 265 12566ft 152kts
21-May-21 14:13 34.754864 -116.011154 265 12565ft 152kts
21-May-21 14:14 34.752567 -116.062467 265 12565ft 152kts
21-May-21 14:15 34.750243 -116.113876 265 12564ft 151kts
21-May-21 14:16 34.747910 -116.165012 265 12564ft 151kts
21-May-21 14:17 34.745550 -116.216260 265 12553ft 152kts
21-May-21 14:18 34.743165 -116.267569 265 12541ft 152kts
21-May-21 14:19 34.740764 -116.318783 265 12529ft 152kts
21-May-21 14:20 34.738330 -116.370231 265 12517ft 152kts
21-May-21 14:21 34.735886 -116.421430 265 12508ft 152kts
21-May-21 14:22 34.733423 -116.472592 265 12508ft 151kts
21-May-21 14:23 34.730935 -116.523808 265 12507ft 151kts
21-May-21 14:24 34.728414 -116.575260 265 12425ft 154kts
21-May-21 14:25 34.727279 -116.623954 267 13306ft 128kts
21-May-21 14:26 34.727230 -116.668805 262 14468ft 135kts
21-May-21 14:27 34.721761 -116.721116 260 14162ft 167kts
21-May-21 14:28 34.714236 -116.772837 258 14319ft 150kts
21-May-21 14:29 34.706967 -116.821333 274 14443ft 150kts
21-May-21 14:30 34.714744 -116.871804 270 14439ft 151kts
21-May-21 14:31 34.717544 -116.922646 266 14449ft 149kts
21-May-21 14:32 34.715042 -116.973141 263 14296ft 154kts
21-May-21 14:33 34.712060 -117.026865 265 13742ft 167kts
21-May-21 14:34 34.707491 -117.083317 263 13056ft 168kts
21-May-21 14:35 34.700119 -117.138731 259 12567ft 160kts
21-May-21 14:36 34.695704 -117.190715 266 12512ft 150kts
21-May-21 14:37 34.693091 -117.240893 266 12510ft 148kts
21-May-21 14:38 34.690523 -117.290748 266 12510ft 147kts
21-May-21 14:39 34.687977 -117.340439 266 12509ft 147kts
21-May-21 14:40 34.685448 -117.390073 266 12506ft 147kts
21-May-21 14:41 34.682914 -117.440066 266 12500ft 147kts
21-May-21 14:42 34.680370 -117.490461 266 12494ft 147kts
21-May-21 14:43 34.677877 -117.540151 266 12488ft 147kts
21-May-21 14:44 34.675366 -117.589828 266 12478ft 149kts
21-May-21 14:45 34.671469 -117.641432 266 12481ft 156kts
21-May-21 14:46 34.667406 -117.694556 265 12487ft 159kts
21-May-21 14:47 34.663773 -117.748124 266 12487ft 159kts
21-May-21 14:48 34.670952 -117.800885 281 12486ft 159kts
21-May-21 14:49 34.681478 -117.853157 282 12487ft 159kts
21-May-21 14:50 34.693124 -117.903496 297 12481ft 128kts
21-May-21 14:51 34.724469 -117.896423 301 12504ft 144kts
21-May-21 14:52 34.727015 -117.946046 266 12496ft 156kts
21-May-21 14:53 34.723047 -117.999122 266 12501ft 158kts
21-May-21 14:54 34.718950 -118.052805 264 12441ft 162kts
21-May-21 14:56 34.713198 -118.110592 276 11896ft 171kts
21-May-21 14:57 34.724027 -118.168199 283 11293ft 177kts
21-May-21 14:58 34.736380 -118.225374 279 10812ft 173kts
21-May-21 14:59 34.746716 -118.281967 283 10513ft 165kts
21-May-21 15:00 34.757914 -118.334941 283 10518ft 159kts
21-May-21 15:01 34.767356 -118.387271 280 10529ft 158kts
21-May-21 15:02 34.775448 -118.439977 280 10541ft 158kts
21-May-21 15:03 34.783444 -118.492848 280 10553ft 158kts
21-May-21 15:04 34.791267 -118.545590 280 10565ft 158kts
21-May-21 15:05 34.798886 -118.598313 280 10569ft 158kts
21-May-21 15:06 34.806525 -118.651107 280 10569ft 158kts
21-May-21 15:07 34.814175 -118.704140 280 10574ft 159kts
21-May-21 15:08 34.821739 -118.757172 280 10574ft 158kts
21-May-21 15:09 34.829340 -118.810221 280 10574ft 158kts
21-May-21 15:10 34.836691 -118.863010 280 10573ft 158kts
21-May-21 15:11 34.843667 -118.916466 280 10573ft 160kts
21-May-21 15:12 34.850270 -118.970193 280 10553ft 162kts
21-May-21 15:13 34.857497 -119.024261 282 10545ft 161kts
21-May-21 15:14 34.866658 -119.077943 284 10541ft 162kts
21-May-21 15:15 34.876114 -119.131605 284 10535ft 161kts
21-May-21 15:16 34.885733 -119.184992 284 10528ft 160kts
21-May-21 15:17 34.895646 -119.238360 284 10522ft 160kts
21-May-21 15:18 34.905615 -119.291457 284 10516ft 161kts
21-May-21 15:19 34.915728 -119.344889 284 10516ft 161kts
21-May-21 15:20 34.925891 -119.398539 284 10516ft 162kts
21-May-21 15:21 34.936064 -119.452276 284 10516ft 163kts
21-May-21 15:22 34.943960 -119.507141 281 10516ft 164kts
21-May-21 15:23 34.951598 -119.562194 281 10514ft 164kts
21-May-21 15:23 34.957910 -119.607888 280 10481ft 166kts
21-May-21 15:24 34.963671 -119.666144 275 9954ft 173kts
21-May-21 15:26 34.970902 -119.733897 280 9419ft 172kts
21-May-21 15:26 34.977763 -119.781501 283 8910ft 171kts
21-May-21 15:27 34.988157 -119.838836 282 8199ft 173kts
21-May-21 15:28 34.997536 -119.896382 280 7546ft 172kts
21-May-21 15:30 35.007005 -119.960652 279 6900ft 164kts
21-May-21 15:31 35.013573 -120.014997 275 6466ft 157kts
21-May-21 15:32 35.019336 -120.064283 278 6579ft 143kts
21-May-21 15:33 35.023080 -120.114112 273 6129ft 153kts
21-May-21 15:33 35.028734 -120.157106 286 5625ft 154kts
21-May-21 15:34 35.037668 -120.207250 283 4981ft 153kts
21-May-21 15:35 35.046606 -120.250180 286 4557ft 110kts
21-May-21 15:36 35.053294 -120.289122 283 4051ft 130kts
21-May-21 15:37 35.059816 -120.332517 277 3543ft 130kts
21-May-21 15:38 35.063437 -120.376929 278 2991ft 131kts
21-May-21 15:39 35.064776 -120.421119 271 2553ft 127kts
21-May-21 15:40 35.070477 -120.460223 287 2407ft 120kts
21-May-21 15:41 35.080067 -120.500275 289 1821ft 126kts
21-May-21 15:42 35.091292 -120.539168 294 1473ft 115kts
21-May-21 15:43 35.100732 -120.575958 264 1194ft 117kts
21-May-21 15:44 35.096772 -120.615553 299 916ft 111kts
21-May-21 15:45 35.092654 -120.642178 180 1047ft 123kts
21-May-21 15:46 35.076317 -120.608108 47 830ft 100kts
21-May-21 15:47 35.096323 -120.613180 304 204ft 78kts
21-May-21 15:48 35.105996 -120.637268 252 933ft 98kts
21-May-21 15:49 35.080758 -120.619201 128 975ft 140kts
21-May-21 15:50 35.086514 -120.601855 316 515ft 87kts
21-May-21 15:51 35.100873 -120.621116 302 17ft 56kts
21-May-21 15:52 35.102972 -120.623958 340 15ft 0kts
21-May-21 15:53 35.103255 -120.624421 211 15ft 0kts
21-May-21 15:54 35.103255 -120.624421 211 15ft 0kts
21-May-21 15:55 35.103255 -120.624421 211 15ft 0kts
21-May-21 15:56 35.103255 -120.624421 211 15ft 0kts

Navigation Log

Ident Type
Flight plan parsing failed, navigation log unavailable